Flight Track Log - Related Links

Times and Time Zones

All times are in EDT time to prevent confusion due to time zone crossing. See the HAL380 flight status page for this flight to view local times or setup timezone preferences in your user account.

Time Position Orientation Groundspeed Altitude Reporting Facility
EDT Latitude Longitude Course Direction KTS MPH feet Rate Location/Type
Thu 11:48:53 PM 21.3000 -157.9000 126° Southeast 160 184 1,100  Level Honolulu Center
Thu 11:49:53 PM 21.2500 -157.8667 148° Southeast 230 265 2,000 1,250 Climbing Honolulu Center
Thu 11:50:53 PM 21.2000 -157.8167 137° Southeast 280 322 3,600 1,850 Climbing Honolulu Center
Thu 11:51:53 PM 21.1833 -157.7333 102° East 290 334 5,700 2,150 Climbing Honolulu Center
Thu 11:52:00 PM 21.1778 -157.3665 100° East  Level FlightAware Approximate
Thu 11:52:53 PM 21.1833 -157.6500 90° East 290 334 7,900  Level Honolulu Center
Thu 11:53:00 PM 21.1486 -157.2275 105° East  Level FlightAware Approximate
Thu 11:53:53 PM 21.1667 -157.5667 102° East 300 345 9,800  Level Honolulu Center
Thu 11:54:00 PM 21.0979 -157.0968 126° Southeast  Level FlightAware Approximate
Thu 11:54:53 PM 21.1667 -157.4667 90° East 330 380 11,100  Level Honolulu Center
Thu 11:55:53 PM 21.1500 -157.3667 100° East 370 426 12,100 1,250 Climbing Honolulu Center
Thu 11:56:53 PM 21.1333 -157.2500 99° East 390 449 13,600 1,488 Climbing Honolulu Center
Thu 11:57:54 PM 21.1333 -157.1500 90° East 390 449 15,100 1,537 Climbing Honolulu Center
Thu 11:58:54 PM 21.0667 -157.0333 121° Southeast 400 460 16,700 1,500 Climbing Honolulu Center
Thu 11:59:54 PM 21.0167 -156.9167 115° Southeast 410 472 18,100 1,350 Climbing Honolulu Center
Fri 12:00:54 AM 20.9500 -156.8167 126° Southeast 420 483 19,400 1,300 Climbing Honolulu Center
Fri 12:01:54 AM 20.9000 -156.7000 115° Southeast 420 483 20,700 1,300 Climbing Honolulu Center
Fri 12:02:54 AM 20.8500 -156.5833 115° Southeast 430 495 22,000 1,300 Climbing Honolulu Center
Fri 12:03:54 AM 20.7833 -156.4667 121° Southeast 440 506 23,300 1,500 Climbing Honolulu Center
Fri 12:04:54 AM 20.7333 -156.3500 115° Southeast 440 506 25,000 843 Climbing Honolulu Center
Fri 12:05:55 AM 20.6667 -156.2333 121° Southeast 430 495 25,000  Level Honolulu Center
Fri 12:06:55 AM 20.6167 -156.1333 118° Southeast 430 495 25,000  Level Honolulu Center
Fri 12:07:55 AM 20.5667 -156.0167 115° Southeast 430 495 25,000  Level Honolulu Center
Fri 12:08:55 AM 20.5000 -155.9000 121° Southeast 430 495 25,000 -800 Level Honolulu Center
Fri 12:09:55 AM 20.4500 -155.7833 115° Southeast 430 495 23,400 -2,200 Descending Honolulu Center
Fri 12:10:55 AM 20.4000 -155.7000 123° Southeast 420 483 20,600 -2,500 Descending Honolulu Center
Fri 12:11:55 AM 20.3333 -155.5667 118° Southeast 400 460 18,400 -2,350 Descending Honolulu Center
Fri 12:12:55 AM 20.2833 -155.4667 118° Southeast 390 449 15,900 -2,550 Descending Honolulu Center
Fri 12:13:55 AM 20.2333 -155.3667 118° Southeast 370 426 13,300 -2,182 Descending Honolulu Center
Fri 12:14:56 AM 20.2000 -155.2833 113° Southeast 350 403 11,500 -1,550 Descending Honolulu Center
Fri 12:15:55 AM 20.1500 -155.2000 123° Southeast 320 368 10,200 -1,400 Descending Honolulu Center
Fri 12:16:56 AM 20.1000 -155.1333 129° Southeast 300 345 8,700 -1,537 Descending Honolulu Center
Fri 12:17:56 AM 20.0500 -155.0667 129° Southeast 280 322 7,100 -1,600 Descending Honolulu Center

Login

Don't have an account? Register now (free) for customized features, flight alerts, and more!